Time;durP1;ratioP1;P1;durP2;ratioP2;P2;SDS_P1;SDS_P2;PMS_P1;PMS_P2;Temp;Humidity;BMP_temperature;BMP_pressure;BME280_temperature;BME280_humidity;BME280_pressure;Samples;Min_cycle;Max_cycle;Signal;HPM_P1;HPM_P2
2023/06/22 00:02:14;;;;;;;29.02;24.77;;;18.40;99.90;;;;;;5055124;28;20037;-84
2023/06/22 00:04:40;;;;;;;27.92;25.02;;;18.40;99.90;;;;;;5037290;28;20047;-84
2023/06/22 00:07:05;;;;;;;31.00;26.52;;;18.40;99.90;;;;;;5055154;28;20068;-84
2023/06/22 00:09:32;;;;;;;26.80;23.73;;;18.40;99.90;;;;;;5043670;28;20492;-84
2023/06/22 00:11:58;;;;;;;29.77;25.73;;;18.40;99.90;;;;;;5051688;28;20041;-85
2023/06/22 00:14:23;;;;;;;29.30;25.85;;;18.30;99.90;;;;;;5058770;28;20116;-84
2023/06/22 00:16:49;;;;;;;29.73;26.50;;;18.30;99.90;;;;;;5055394;28;20068;-83
2023/06/22 00:19:15;;;;;;;28.30;25.10;;;18.30;99.90;;;;;;5062011;28;20119;-81
2023/06/22 00:21:42;;;;;;;31.35;28.15;;;18.30;99.90;;;;;;5053823;28;20442;-82
2023/06/22 00:24:08;;;;;;;29.27;26.27;;;18.30;99.90;;;;;;5038567;28;20400;-82
2023/06/22 00:26:34;;;;;;;29.95;26.67;;;18.30;99.90;;;;;;5034219;28;20064;-85
2023/06/22 00:28:59;;;;;;;32.65;28.17;;;18.20;99.90;;;;;;5053383;28;20029;-85
2023/06/22 00:31:25;;;;;;;34.20;28.63;;;18.30;99.90;;;;;;5055420;28;20043;-84
2023/06/22 00:33:50;;;;;;;30.58;27.38;;;18.20;99.90;;;;;;5056127;28;20131;-84
2023/06/22 00:36:17;;;;;;;31.60;28.33;;;18.20;99.90;;;;;;5035633;28;20051;-86
2023/06/22 00:38:43;;;;;;;29.85;26.75;;;18.10;99.90;;;;;;5033229;28;20045;-85
2023/06/22 00:41:09;;;;;;;33.53;29.58;;;18.20;99.90;;;;;;5059347;28;20051;-84
2023/06/22 00:43:35;;;;;;;33.47;29.85;;;18.10;99.90;;;;;;5060815;28;20123;-85
2023/06/22 00:46:01;;;;;;;39.08;31.65;;;18.10;99.90;;;;;;5052138;28;20538;-84
2023/06/22 00:48:26;;;;;;;34.25;30.55;;;18.10;99.90;;;;;;5047941;28;20078;-85
2023/06/22 00:50:53;;;;;;;33.63;28.35;;;18.00;99.90;;;;;;5050845;28;20037;-85
2023/06/22 00:53:19;;;;;;;35.83;31.98;;;18.00;99.90;;;;;;5049908;28;20056;-85
2023/06/22 00:55:47;;;;;;;33.72;30.17;;;18.00;99.90;;;;;;5048746;28;20049;-85
2023/06/22 00:58:13;;;;;;;33.78;30.40;;;18.00;99.90;;;;;;5034900;28;20034;-85
2023/06/22 01:00:41;;;;;;;36.05;32.25;;;18.00;99.90;;;;;;5052101;28;20450;-85
2023/06/22 01:03:08;;;;;;;36.08;32.17;;;17.90;99.90;;;;;;5042391;28;20041;-85
2023/06/22 01:05:36;;;;;;;34.03;29.80;;;17.90;99.90;;;;;;5049363;28;20041;-85
2023/06/22 01:08:25;;;;;;;35.85;31.73;;;17.80;99.90;;;;;;5037870;28;20488;-85
2023/06/22 01:11:08;;;;;;;35.80;31.90;;;17.80;99.90;;;;;;5050444;28;20037;-85
2023/06/22 01:14:01;;;;;;;35.58;31.73;;;17.80;99.90;;;;;;5049147;28;20403;-86
2023/06/22 01:16:36;;;;;;;36.05;32.20;;;17.70;99.90;;;;;;5053593;28;20041;-85
2023/06/22 01:19:30;;;;;;;34.20;30.48;;;17.70;99.90;;;;;;5034607;28;20041;-85
2023/06/22 01:21:57;;;;;;;33.53;29.92;;;17.70;99.90;;;;;;5018026;28;20057;-85
2023/06/22 01:24:32;;;;;;;38.00;34.05;;;17.70;99.90;;;;;;5015793;28;20507;-85
2023/06/22 01:27:09;;;;;;;37.95;32.72;;;17.70;99.90;;;;;;5046278;28;20446;-85
2023/06/22 01:29:38;;;;;;;38.05;32.70;;;17.70;99.90;;;;;;5049355;28;20045;-85
2023/06/22 01:32:05;;;;;;;37.80;33.72;;;17.70;99.90;;;;;;5050061;28;20123;-86
2023/06/22 01:34:33;;;;;;;37.20;33.30;;;17.70;99.90;;;;;;5050233;28;20372;-85
2023/06/22 01:37:00;;;;;;;35.75;31.63;;;17.70;99.90;;;;;;5017585;28;20065;-85
2023/06/22 01:39:26;;;;;;;;;;;17.60;99.90;;;;;;5029681;28;20045;-84
2023/06/22 01:41:53;;;;;;;33.28;29.77;;;17.70;99.90;;;;;;5048584;28;19927;-84
2023/06/22 01:44:19;;;;;;;38.08;32.55;;;17.70;99.90;;;;;;5047096;28;20049;-84
2023/06/22 01:46:45;;;;;;;40.33;35.13;;;17.70;99.90;;;;;;5045791;28;20045;-84
2023/06/22 01:49:12;;;;;;;38.70;34.60;;;17.60;99.90;;;;;;5031244;28;20038;-85
2023/06/22 01:51:38;;;;;;;37.55;33.15;;;17.60;99.90;;;;;;5034863;28;20160;-84
2023/06/22 01:54:05;;;;;;;37.85;34.15;;;17.60;99.90;;;;;;5048494;28;20100;-83
2023/06/22 01:56:32;;;;;;;40.40;34.10;;;17.50;99.90;;;;;;5047463;28;20128;-84
2023/06/22 01:59:03;;;;;;;38.40;34.22;;;17.50;99.90;;;;;;5046678;28;20072;-84
2023/06/22 02:01:35;;;;;;;39.80;34.97;;;17.50;99.90;;;;;;5030833;28;20051;-84
2023/06/22 02:04:26;;;;;;;39.03;34.95;;;17.50;99.90;;;;;;5014391;28;20049;-83
2023/06/22 02:06:56;;;;;;;38.90;34.88;;;17.40;99.90;;;;;;5047441;28;20072;-83
2023/06/22 02:09:24;;;;;;;38.20;34.13;;;17.40;99.90;;;;;;5047613;28;20049;-83
2023/06/22 02:11:53;;;;;;;38.35;34.35;;;17.40;99.90;;;;;;5048749;28;20377;-83
2023/06/22 02:14:19;;;;;;;36.80;33.13;;;17.40;99.90;;;;;;5047612;28;20052;-83
2023/06/22 02:16:45;;;;;;;36.90;33.05;;;17.30;99.90;;;;;;5047092;28;20449;-83
2023/06/22 02:19:11;;;;;;;39.92;35.85;;;17.30;99.90;;;;;;5046758;28;20021;-83
2023/06/22 02:21:37;;;;;;;38.85;35.00;;;17.30;99.90;;;;;;5051685;28;20041;-83
2023/06/22 02:24:04;;;;;;;41.42;36.00;;;17.30;99.90;;;;;;5030961;28;20079;-83
2023/06/22 02:26:31;;;;;;;39.83;35.72;;;17.20;99.90;;;;;;5028272;28;20521;-83
2023/06/22 02:28:56;;;;;;;40.97;36.57;;;17.20;99.90;;;;;;5049713;28;20407;-84
2023/06/22 02:31:22;;;;;;;40.38;36.17;;;17.30;99.90;;;;;;5051551;28;20287;-83
2023/06/22 02:33:48;;;;;;;42.28;37.75;;;17.20;99.90;;;;;;5050239;28;20044;-83
2023/06/22 02:36:14;;;;;;;42.80;37.47;;;17.20;99.90;;;;;;5048309;28;20050;-83
2023/06/22 02:38:48;;;;;;;41.17;36.97;;;17.10;99.90;;;;;;5049982;28;20029;-84
2023/06/22 02:41:17;;;;;;;40.45;35.95;;;17.10;99.90;;;;;;5047753;28;20070;-84
2023/06/22 02:43:46;;;;;;;40.22;36.05;;;17.20;99.90;;;;;;5036856;28;20044;-85
2023/06/22 02:46:13;;;;;;;45.53;38.55;;;17.10;99.90;;;;;;5031333;28;20041;-84
2023/06/22 02:48:42;;;;;;;43.45;38.85;;;17.10;99.90;;;;;;5048954;28;20063;-84
2023/06/22 02:51:08;;;;;;;40.50;36.15;;;17.10;99.90;;;;;;5036521;28;20059;-85
2023/06/22 02:53:34;;;;;;;45.30;40.38;;;17.10;99.90;;;;;;5050448;28;20059;-85
2023/06/22 02:56:05;;;;;;;41.25;36.40;;;17.10;99.90;;;;;;5033747;28;20119;-85
2023/06/22 02:58:38;;;;;;;42.58;38.20;;;17.00;99.90;;;;;;5049984;28;20127;-85
2023/06/22 03:01:06;;;;;;;41.28;37.03;;;17.00;99.90;;;;;;5033135;28;20051;-83
2023/06/22 03:03:32;;;;;;;39.30;35.22;;;17.10;99.90;;;;;;5029301;28;20043;-83
2023/06/22 03:05:57;;;;;;;44.72;39.88;;;17.00;99.90;;;;;;5048741;28;20029;-83
2023/06/22 03:08:23;;;;;;;43.88;39.25;;;17.10;99.90;;;;;;5049803;28;20056;-83
2023/06/22 03:10:49;;;;;;;44.38;39.78;;;17.00;99.90;;;;;;5048352;28;20120;-83
2023/06/22 03:13:15;;;;;;;43.03;38.08;;;17.00;99.90;;;;;;5047760;28;20479;-84
2023/06/22 03:15:40;;;;;;;44.00;39.38;;;16.90;99.90;;;;;;5049331;28;20048;-85
2023/06/22 03:18:06;;;;;;;44.15;39.63;;;17.00;99.90;;;;;;5046992;28;20560;-85
2023/06/22 03:20:33;;;;;;;47.20;42.08;;;16.90;99.90;;;;;;5028595;28;20100;-84
2023/06/22 03:22:59;;;;;;;43.13;38.57;;;16.90;99.90;;;;;;5045198;28;20037;-84
2023/06/22 03:25:25;;;;;;;45.00;40.30;;;17.00;99.90;;;;;;5032380;28;20033;-85
2023/06/22 03:27:51;;;;;;;48.00;42.70;;;16.90;99.90;;;;;;5048604;28;20036;-85
2023/06/22 03:30:16;;;;;;;44.35;39.70;;;16.90;99.90;;;;;;5047762;28;20425;-84
2023/06/22 03:32:43;;;;;;;46.65;41.63;;;16.90;99.90;;;;;;5050555;28;20045;-84
2023/06/22 03:35:10;;;;;;;47.40;41.95;;;16.90;99.90;;;;;;5050171;28;20048;-85
2023/06/22 03:37:35;;;;;;;47.60;42.60;;;16.90;99.90;;;;;;5045921;28;20116;-86
2023/06/22 03:40:03;;;;;;;47.72;42.08;;;17.00;99.90;;;;;;5030241;28;20382;-85
2023/06/22 03:42:29;;;;;;;48.60;43.03;;;17.00;99.90;;;;;;5049858;28;20210;-85
2023/06/22 03:44:54;;;;;;;45.22;40.42;;;16.90;99.90;;;;;;5046427;28;20033;-85
2023/06/22 03:47:20;;;;;;;46.33;41.35;;;17.00;99.90;;;;;;5045230;28;20822;-85
2023/06/22 03:49:46;;;;;;;47.15;42.20;;;17.00;99.90;;;;;;5049858;28;20462;-85
2023/06/22 03:52:11;;;;;;;45.72;40.78;;;17.00;99.90;;;;;;5049595;28;20086;-85
2023/06/22 03:54:37;;;;;;;47.40;42.25;;;17.00;99.90;;;;;;5048163;28;20039;-85
2023/06/22 03:57:03;;;;;;;53.05;44.60;;;17.10;99.90;;;;;;5050318;28;20148;-86
2023/06/22 03:59:29;;;;;;;50.60;44.92;;;17.10;99.90;;;;;;5053686;28;20136;-85
2023/06/22 04:01:54;;;;;;;47.53;42.45;;;17.10;99.90;;;;;;5051176;28;20041;-85
2023/06/22 04:04:20;;;;;;;48.65;43.45;;;17.20;99.90;;;;;;5032427;28;20038;-85
2023/06/22 04:06:46;;;;;;;44.78;40.03;;;17.10;99.90;;;;;;5051079;28;20080;-85
2023/06/22 04:09:12;;;;;;;48.28;43.03;;;17.20;99.90;;;;;;5055773;28;20506;-86
2023/06/22 04:11:37;;;;;;;45.10;40.38;;;17.20;99.90;;;;;;5035829;28;20036;-84
2023/06/22 04:14:03;;;;;;;46.53;41.63;;;17.20;99.90;;;;;;5041078;28;20479;-85
2023/06/22 04:16:29;;;;;;;43.72;39.13;;;;;;;;;;5057562;28;20075;-86
2023/06/22 04:18:55;;;;;;;46.15;41.13;;;17.30;99.90;;;;;;5055830;28;20033;-86
2023/06/22 04:21:20;;;;;;;43.50;38.90;;;17.20;99.90;;;;;;5038972;28;20398;-86
2023/06/22 04:23:47;;;;;;;45.45;40.53;;;17.30;99.90;;;;;;5040829;28;20052;-83
2023/06/22 04:26:14;;;;;;;44.50;39.92;;;17.30;99.90;;;;;;5038191;28;20102;-84
2023/06/22 04:28:40;;;;;;;41.42;37.08;;;17.40;99.90;;;;;;5038204;28;20040;-84
2023/06/22 04:31:06;;;;;;;43.85;39.25;;;17.40;99.90;;;;;;5053440;28;20044;-84
2023/06/22 04:33:32;;;;;;;44.47;39.67;;;17.50;99.90;;;;;;5055593;28;20033;-84
2023/06/22 04:36:00;;;;;;;41.53;37.03;;;17.50;99.90;;;;;;5054283;28;20494;-85
2023/06/22 04:38:27;;;;;;;40.35;36.08;;;;;;;;;;5035374;28;20041;-86
2023/06/22 04:40:53;;;;;;;40.30;36.35;;;18.10;99.90;;;;;;5033092;28;20056;-85
2023/06/22 04:43:20;;;;;;;40.53;36.58;;;18.40;99.90;;;;;;5034830;28;20042;-84
2023/06/22 04:45:45;;;;;;;39.45;35.47;;;18.70;99.90;;;;;;5048805;28;20098;-84
2023/06/22 04:48:16;;;;;;;39.83;35.85;;;18.80;99.90;;;;;;5046981;28;20065;-84
2023/06/22 04:50:42;;;;;;;38.33;34.35;;;19.00;99.90;;;;;;5049062;28;20060;-84
2023/06/22 04:53:09;;;;;;;38.20;34.33;;;19.70;99.90;;;;;;5049594;28;20045;-85
2023/06/22 04:55:37;;;;;;;37.20;33.55;;;20.00;99.90;;;;;;5053102;28;20056;-84
2023/06/22 04:58:04;;;;;;;35.72;32.28;;;20.30;99.90;;;;;;5032963;28;20132;-84
2023/06/22 05:00:30;;;;;;;35.13;31.60;;;21.00;99.90;;;;;;5048770;28;20044;-84
2023/06/22 05:02:59;;;;;;;35.38;31.92;;;21.60;99.90;;;;;;5050744;28;20037;-86
2023/06/22 05:05:25;;;;;;;35.60;32.03;;;22.00;99.90;;;;;;5052952;28;20139;-86
2023/06/22 05:07:52;;;;;;;33.90;30.70;;;22.20;99.90;;;;;;5052074;28;20136;-86
2023/06/22 05:10:21;;;;;;;33.40;30.08;;;22.50;99.90;;;;;;5050823;28;20051;-86
2023/06/22 05:12:47;;;;;;;31.38;28.15;;;22.60;99.90;;;;;;5052156;28;20551;-86
2023/06/22 05:15:12;;;;;;;31.80;28.65;;;22.60;99.90;;;;;;5016978;28;20075;-86
2023/06/22 05:17:42;;;;;;;31.85;28.65;;;22.70;99.90;;;;;;5050734;28;20048;-86
2023/06/22 05:20:12;;;;;;;30.48;27.38;;;22.80;99.90;;;;;;5052518;28;20045;-84
2023/06/22 05:22:39;;;;;;;30.10;27.00;;;22.90;99.90;;;;;;5048569;28;20049;-82
2023/06/22 05:25:08;;;;;;;30.07;27.17;;;23.10;99.90;;;;;;5017913;28;20060;-83
2023/06/22 05:27:34;;;;;;;29.10;26.20;;;23.40;99.90;;;;;;5032578;28;20073;-84
2023/06/22 05:29:59;;;;;;;29.20;26.38;;;23.50;99.90;;;;;;5032350;28;20061;-85
2023/06/22 05:32:25;;;;;;;28.98;26.00;;;23.80;99.90;;;;;;5048305;28;20104;-85
2023/06/22 05:34:50;;;;;;;27.90;24.98;;;23.90;99.90;;;;;;5045766;28;20056;-85
2023/06/22 05:37:16;;;;;;;28.63;25.92;;;24.40;99.90;;;;;;5030494;28;20100;-85
2023/06/22 05:39:42;;;;;;;26.63;24.13;;;24.40;99.90;;;;;;5048461;28;20030;-85
2023/06/22 05:42:08;;;;;;;27.40;24.63;;;24.20;99.90;;;;;;5046452;28;20499;-85
2023/06/22 05:44:34;;;;;;;26.88;24.40;;;23.90;99.90;;;;;;5032663;28;20044;-84
2023/06/22 05:46:59;;;;;;;27.35;24.75;;;23.70;99.90;;;;;;5049935;28;20139;-85
2023/06/22 05:49:32;;;;;;;26.33;23.73;;;23.90;99.90;;;;;;5035258;28;20142;-86
2023/06/22 05:51:58;;;;;;;26.77;24.27;;;23.90;99.90;;;;;;5053489;28;20036;-87
2023/06/22 05:54:24;;;;;;;27.63;25.00;;;23.70;99.90;;;;;;5019508;28;20044;-85
2023/06/22 05:56:49;;;;;;;25.73;23.33;;;24.00;99.90;;;;;;5031537;28;20545;-86
2023/06/22 05:59:15;;;;;;;26.77;24.33;;;24.20;99.90;;;;;;5038424;28;20041;-86
2023/06/22 06:01:41;;;;;;;26.92;24.33;;;24.70;99.90;;;;;;5045782;28;20145;-86
2023/06/22 06:04:09;;;;;;;25.17;22.67;;;24.90;99.90;;;;;;5051384;28;20053;-86
2023/06/22 06:06:36;;;;;;;25.88;23.23;;;25.20;99.90;;;;;;5012796;28;20574;-85
2023/06/22 06:09:07;;;;;;;24.73;22.33;;;25.20;99.90;;;;;;5033543;28;21182;-85
2023/06/22 06:11:33;;;;;;;25.55;23.00;;;25.40;99.90;;;;;;5019182;28;20132;-84
2023/06/22 06:13:58;;;;;;;21.05;19.05;;;25.50;99.90;;;;;;5046694;28;20120;-85
2023/06/22 06:16:24;;;;;;;19.35;17.52;;;25.40;99.90;;;;;;5028936;28;20057;-85
2023/06/22 06:18:50;;;;;;;19.67;17.67;;;25.60;99.90;;;;;;5016860;28;20079;-85
2023/06/22 06:21:16;;;;;;;19.38;17.65;;;25.70;99.90;;;;;;5033455;28;20504;-86
2023/06/22 06:23:42;;;;;;;19.35;17.45;;;26.20;99.90;;;;;;5049076;28;20064;-85
2023/06/22 06:26:08;;;;;;;19.38;17.58;;;26.40;99.90;;;;;;5047001;28;20041;-85
2023/06/22 06:28:34;;;;;;;18.25;16.55;;;26.40;99.90;;;;;;5033542;28;20052;-86
2023/06/22 06:31:02;;;;;;;17.43;15.77;;;26.00;99.90;;;;;;5053749;28;20041;-86
2023/06/22 06:33:27;;;;;;;;;;;26.40;99.90;;;;;;5034784;28;20144;-86
2023/06/22 06:35:55;;;;;;;17.63;16.02;;;26.50;99.90;;;;;;5034915;28;19932;-86
2023/06/22 06:38:21;;;;;;;16.95;15.35;;;25.90;99.90;;;;;;5030435;28;20056;-86
2023/06/22 06:40:48;;;;;;;17.98;16.38;;;25.50;99.90;;;;;;5052025;28;20043;-87
2023/06/22 06:43:14;;;;;;;17.52;15.75;;;25.10;99.90;;;;;;5022596;28;20140;-87
2023/06/22 06:45:40;;;;;;;16.35;14.85;;;24.40;99.90;;;;;;5054471;28;20125;-87
2023/06/22 06:48:05;;;;;;;17.60;15.90;;;24.40;99.90;;;;;;5046368;28;20050;-85
2023/06/22 06:50:31;;;;;;;17.88;16.23;;;24.30;99.90;;;;;;5049852;28;20439;-86
2023/06/22 06:52:59;;;;;;;16.85;15.18;;;24.10;99.90;;;;;;5044673;28;20053;-86
2023/06/22 06:55:25;;;;;;;17.27;15.68;;;24.20;99.90;;;;;;5052871;28;20051;-86
2023/06/22 06:57:52;;;;;;;18.65;16.65;;;24.10;99.90;;;;;;5045899;28;20040;-86
2023/06/22 07:00:18;;;;;;;17.60;16.00;;;24.30;99.90;;;;;;5057136;28;20055;-86
2023/06/22 07:02:45;;;;;;;16.65;15.05;;;24.60;99.90;;;;;;5039043;28;20066;-86
2023/06/22 07:05:12;;;;;;;15.45;13.85;;;24.90;99.90;;;;;;5039770;28;20060;-86
2023/06/22 07:07:38;;;;;;;15.60;14.10;;;25.50;99.90;;;;;;5054112;28;20077;-86
2023/06/22 07:10:05;;;;;;;15.93;14.45;;;25.60;99.90;;;;;;5040077;28;20075;-86
2023/06/22 07:12:31;;;;;;;;;;;26.00;99.90;;;;;;5041477;28;20273;-86
2023/06/22 07:15:05;;;;;;;16.42;14.77;;;26.10;99.90;;;;;;5036431;28;19921;-86
2023/06/22 07:17:31;;;;;;;15.23;13.85;;;25.80;99.90;;;;;;5050798;28;20147;-87
2023/06/22 07:19:57;;;;;;;14.57;13.23;;;26.10;99.90;;;;;;5052293;28;20162;-87
2023/06/22 07:22:22;;;;;;;15.43;14.00;;;26.30;99.90;;;;;;5051063;28;20037;-86
2023/06/22 07:24:49;;;;;;;13.73;12.43;;;26.10;99.90;;;;;;5051718;28;20041;-86
2023/06/22 07:27:18;;;;;;;15.10;13.00;;;25.40;99.90;;;;;;5041756;28;20064;-85
2023/06/22 07:29:43;;;;;;;13.50;12.20;;;25.40;99.90;;;;;;5037640;28;20295;-85
2023/06/22 07:32:09;;;;;;;12.98;11.77;;;25.70;99.90;;;;;;5050194;28;20033;-82
2023/06/22 07:34:36;;;;;;;12.63;11.43;;;25.80;99.90;;;;;;5051282;28;20029;-84
2023/06/22 07:37:02;;;;;;;12.02;11.02;;;26.00;99.90;;;;;;5049504;28;20057;-82
2023/06/22 07:39:28;;;;;;;11.93;10.73;;;25.80;99.90;;;;;;5051748;28;20045;-83
2023/06/22 07:41:53;;;;;;;13.15;11.60;;;25.90;99.90;;;;;;5033953;28;20051;-83
2023/06/22 07:44:19;;;;;;;12.35;11.15;;;26.30;99.90;;;;;;5051156;28;20068;-82
2023/06/22 07:46:45;;;;;;;13.43;12.15;;;25.70;99.90;;;;;;5051784;28;20826;-83
2023/06/22 07:49:13;;;;;;;12.85;11.65;;;25.20;99.90;;;;;;5059674;28;20056;-83
2023/06/22 07:51:39;;;;;;;12.90;11.70;;;25.10;99.90;;;;;;5024510;28;20051;-82
2023/06/22 07:54:04;;;;;;;12.15;10.95;;;24.80;99.90;;;;;;5053223;28;20127;-81
2023/06/22 07:56:30;;;;;;;13.40;12.10;;;24.70;99.90;;;;;;5056632;28;20037;-82
2023/06/22 07:58:58;;;;;;;11.48;10.38;;;24.60;99.90;;;;;;5057783;28;20113;-82
2023/06/22 08:01:23;;;;;;;13.35;11.95;;;24.90;99.90;;;;;;5057539;28;20076;-80
2023/06/22 08:03:49;;;;;;;12.38;11.18;;;24.60;99.90;;;;;;5059769;28;20041;-79
2023/06/22 08:06:16;;;;;;;12.73;11.52;;;24.80;99.90;;;;;;5059636;28;20052;-81
2023/06/22 08:08:42;;;;;;;15.27;11.10;;;24.50;99.90;;;;;;5041733;28;20069;-82
2023/06/22 08:11:08;;;;;;;12.60;11.30;;;24.30;99.90;;;;;;5057257;28;20053;-83
2023/06/22 08:13:35;;;;;;;;;;;24.40;99.90;;;;;;5059205;28;20329;-85
2023/06/22 08:16:01;;;;;;;14.20;12.70;;;24.40;99.90;;;;;;5044723;28;19929;-83
2023/06/22 08:18:26;;;;;;;11.93;10.82;;;24.50;99.90;;;;;;5039618;28;20101;-82
2023/06/22 08:20:52;;;;;;;12.73;11.43;;;24.70;99.90;;;;;;5039167;28;20042;-82
2023/06/22 08:23:18;;;;;;;11.65;10.48;;;24.60;99.90;;;;;;5052565;28;20037;-82
2023/06/22 08:25:44;;;;;;;11.82;10.73;;;24.90;99.90;;;;;;5039418;28;20045;-81
2023/06/22 08:28:10;;;;;;;11.60;10.50;;;25.00;99.90;;;;;;5060187;28;20057;-82
2023/06/22 08:30:36;;;;;;;11.60;10.50;;;25.10;99.90;;;;;;5055130;28;20041;-83
2023/06/22 08:33:01;;;;;;;12.10;11.07;;;25.20;99.90;;;;;;5037102;28;20064;-83
2023/06/22 08:35:27;;;;;;;12.02;10.82;;;25.20;99.90;;;;;;5056103;28;20040;-83
2023/06/22 08:37:54;;;;;;;12.85;11.55;;;25.10;99.90;;;;;;5036403;28;20121;-82
2023/06/22 08:40:20;;;;;;;12.53;11.23;;;25.20;99.90;;;;;;5054381;28;20052;-82
2023/06/22 08:42:47;;;;;;;12.13;10.85;;;25.20;99.90;;;;;;5032774;28;20524;-83
2023/06/22 08:45:13;;;;;;;11.57;10.37;;;25.50;99.90;;;;;;5049465;28;20365;-81
2023/06/22 08:47:44;;;;;;;10.82;9.75;;;;;;;;;;5029757;28;20112;-83
2023/06/22 08:50:11;;;;;;;11.93;10.27;;;25.50;99.90;;;;;;5055935;28;20451;-84
2023/06/22 08:52:37;;;;;;;;;;;25.80;99.90;;;;;;5057927;28;20039;-83
2023/06/22 08:55:04;;;;;;;10.55;9.35;;;25.70;99.90;;;;;;5036615;28;20019;-84
2023/06/22 08:57:30;;;;;;;10.53;9.27;;;25.80;99.90;;;;;;5056470;28;20037;-81
2023/06/22 08:59:58;;;;;;;10.95;9.82;;;25.50;99.90;;;;;;5054192;28;20125;-83
2023/06/22 09:02:30;;;;;;;11.65;10.55;;;25.30;99.90;;;;;;5037195;28;20060;-82
2023/06/22 09:04:58;;;;;;;10.07;9.18;;;25.20;99.90;;;;;;5041125;28;20037;-82
2023/06/22 09:07:25;;;;;;;10.82;9.73;;;25.40;99.90;;;;;;5061337;28;20499;-82
2023/06/22 09:09:51;;;;;;;9.35;8.45;;;25.60;99.90;;;;;;5054070;28;20045;-82
2023/06/22 09:12:22;;;;;;;9.82;8.25;;;25.90;99.90;;;;;;5054362;28;20073;-82
2023/06/22 09:14:48;;;;;;;11.35;10.15;;;;;;;;;;5060456;28;20041;-82
2023/06/22 09:17:14;;;;;;;9.05;8.10;;;26.30;99.90;;;;;;5056294;28;20102;-82
2023/06/22 09:19:39;;;;;;;10.00;9.00;;;26.50;99.90;;;;;;5058716;28;20044;-82
2023/06/22 09:22:08;;;;;;;10.20;9.20;;;26.50;99.90;;;;;;5053500;28;20045;-82
2023/06/22 09:24:34;;;;;;;10.68;9.20;;;26.60;99.90;;;;;;5054910;28;20042;-82
2023/06/22 09:27:00;;;;;;;10.80;9.60;;;26.60;99.90;;;;;;5049146;28;20037;-82
2023/06/22 09:29:25;;;;;;;9.77;8.88;;;26.60;99.90;;;;;;5049674;28;20045;-82
2023/06/22 09:31:53;;;;;;;11.20;10.10;;;26.40;99.90;;;;;;5050105;28;20111;-82
2023/06/22 09:34:20;;;;;;;10.40;9.25;;;26.10;99.90;;;;;;5056476;28;20128;-81
2023/06/22 09:36:46;;;;;;;10.27;9.18;;;26.10;99.90;;;;;;5035395;28;20575;-82
2023/06/22 09:39:12;;;;;;;9.37;8.47;;;26.20;99.90;;;;;;5039750;28;20080;-81
2023/06/22 09:41:37;;;;;;;11.63;8.95;;;26.60;99.90;;;;;;5057002;28;20033;-81
2023/06/22 09:44:03;;;;;;;10.48;9.48;;;26.30;99.90;;;;;;5051678;28;20037;-82
2023/06/22 09:46:29;;;;;;;11.38;10.23;;;26.10;99.90;;;;;;5056952;28;20560;-81
2023/06/22 09:48:55;;;;;;;9.93;8.90;;;26.40;99.90;;;;;;5043638;28;20033;-81
2023/06/22 09:51:21;;;;;;;13.05;8.93;;;26.50;99.90;;;;;;5057965;28;20078;-81
2023/06/22 09:53:47;;;;;;;10.75;9.77;;;26.60;99.90;;;;;;5058970;28;20047;-81
2023/06/22 09:56:15;;;;;;;9.68;8.77;;;26.50;99.90;;;;;;5051957;28;20079;-82
2023/06/22 09:58:42;;;;;;;;;;;26.50;99.90;;;;;;5049551;28;20052;-81
2023/06/22 10:01:08;;;;;;;9.77;8.93;;;26.60;99.90;;;;;;5061136;28;19920;-81
2023/06/22 10:03:33;;;;;;;9.50;8.60;;;26.70;99.90;;;;;;5058599;28;20496;-82
2023/06/22 10:05:59;;;;;;;10.35;9.45;;;26.70;99.90;;;;;;5050548;28;20087;-81
2023/06/22 10:08:26;;;;;;;9.57;8.50;;;26.90;99.90;;;;;;5060335;28;20097;-81
2023/06/22 10:10:52;;;;;;;10.07;9.07;;;26.90;99.90;;;;;;5042497;28;20586;-82
2023/06/22 10:13:18;;;;;;;10.57;9.40;;;26.50;99.90;;;;;;5053045;28;20064;-81
2023/06/22 10:15:49;;;;;;;9.75;8.73;;;26.80;99.90;;;;;;5043522;28;20048;-81
2023/06/22 10:18:16;;;;;;;9.27;8.48;;;26.80;99.90;;;;;;5082100;28;20098;-82
2023/06/22 10:20:42;;;;;;;9.70;8.13;;;26.70;99.90;;;;;;5043293;28;20072;-81
2023/06/22 10:23:07;;;;;;;8.98;8.13;;;27.00;99.90;;;;;;5056616;28;20160;-81
2023/06/22 10:25:33;;;;;;;9.13;7.97;;;26.90;99.90;;;;;;5060920;28;20068;-81
2023/06/22 10:27:58;;;;;;;8.75;7.95;;;27.00;99.90;;;;;;5055171;28;20100;-81
2023/06/22 10:30:24;;;;;;;9.00;7.65;;;27.00;99.90;;;;;;5060058;28;20041;-82
2023/06/22 10:32:50;;;;;;;8.80;7.90;;;27.20;99.90;;;;;;5037019;28;20045;-81
2023/06/22 10:35:18;;;;;;;8.75;7.70;;;27.20;99.90;;;;;;5061576;28;20036;-81
2023/06/22 10:37:45;;;;;;;8.68;7.03;;;27.50;99.90;;;;;;5058882;28;20061;-82
2023/06/22 10:40:13;;;;;;;7.88;7.00;;;27.50;99.90;;;;;;5058134;28;20115;-81
2023/06/22 10:42:39;;;;;;;7.22;6.53;;;27.10;99.90;;;;;;5037091;28;20453;-81
2023/06/22 10:45:05;;;;;;;8.20;7.30;;;27.30;99.90;;;;;;5055440;28;20037;-81
2023/06/22 10:47:31;;;;;;;11.90;7.10;;;27.30;99.90;;;;;;5040922;28;20059;-81
2023/06/22 10:49:56;;;;;;;8.68;7.88;;;27.40;99.90;;;;;;5058797;28;20044;-81
2023/06/22 10:52:22;;;;;;;9.18;7.05;;;27.10;99.90;;;;;;5045163;28;20073;-81
2023/06/22 10:54:48;;;;;;;7.85;7.03;;;27.20;99.90;;;;;;5050147;28;20037;-81
2023/06/22 10:57:14;;;;;;;8.32;6.78;;;27.10;99.90;;;;;;5045793;28;20111;-81
2023/06/22 10:59:39;;;;;;;11.60;8.00;;;27.00;99.90;;;;;;5034205;28;20544;-82
2023/06/22 11:02:05;;;;;;;7.78;6.95;;;27.20;99.90;;;;;;5051950;28;20453;-83
2023/06/22 11:04:31;;;;;;;6.60;5.80;;;27.30;99.90;;;;;;5052049;28;20063;-83
2023/06/22 11:06:56;;;;;;;6.30;5.70;;;27.30;99.90;;;;;;5045889;28;20098;-85
2023/06/22 11:09:22;;;;;;;6.82;6.20;;;27.50;99.90;;;;;;5030914;28;20048;-83
2023/06/22 11:11:49;;;;;;;8.15;6.88;;;27.40;99.90;;;;;;5050265;28;20094;-84
2023/06/22 11:14:15;;;;;;;8.05;7.30;;;27.30;99.90;;;;;;5050320;28;20037;-84
2023/06/22 11:16:41;;;;;;;6.28;5.75;;;27.20;99.90;;;;;;5052579;28;20136;-84
2023/06/22 11:19:06;;;;;;;6.78;6.10;;;27.30;99.90;;;;;;5032115;28;20033;-85
2023/06/22 11:21:32;;;;;;;8.45;6.25;;;27.10;99.90;;;;;;5044291;28;20037;-85
2023/06/22 11:23:58;;;;;;;6.65;5.30;;;27.30;99.90;;;;;;5033104;28;20495;-84
2023/06/22 11:26:27;;;;;;;5.20;4.80;;;27.30;99.90;;;;;;5015216;28;20076;-85
2023/06/22 11:28:53;;;;;;;6.03;5.53;;;27.50;99.90;;;;;;5047096;28;20128;-84
2023/06/22 11:31:18;;;;;;;6.68;6.05;;;27.50;99.90;;;;;;5058500;28;20064;-85
2023/06/22 11:33:45;;;;;;;7.38;5.32;;;27.50;99.90;;;;;;5049600;28;20062;-83
2023/06/22 11:36:11;;;;;;;4.93;4.43;;;27.50;99.90;;;;;;5054578;28;20509;-83
2023/06/22 11:38:39;;;;;;;5.40;4.90;;;27.40;99.90;;;;;;5031728;28;20065;-84
2023/06/22 11:41:08;;;;;;;;;;;27.30;99.90;;;;;;5046757;28;20049;-84
2023/06/22 11:43:34;;;;;;;5.32;4.93;;;27.30;99.90;;;;;;5046105;28;19927;-84
2023/06/22 11:46:03;;;;;;;6.47;5.88;;;27.30;99.90;;;;;;5045310;28;20041;-84
2023/06/22 11:48:29;;;;;;;6.00;5.45;;;27.40;99.90;;;;;;5051475;28;20384;-84
2023/06/22 11:50:55;;;;;;;6.68;5.43;;;27.20;99.90;;;;;;5045498;28;20037;-83
2023/06/22 11:53:24;;;;;;;6.90;6.20;;;27.40;99.90;;;;;;5037384;28;20045;-84
2023/06/22 11:55:49;;;;;;;6.22;5.72;;;27.40;99.90;;;;;;5064508;28;20041;-83
2023/06/22 11:58:15;;;;;;;6.28;5.43;;;27.40;99.90;;;;;;5036298;28;20045;-84
2023/06/22 12:00:41;;;;;;;5.95;5.45;;;27.40;99.90;;;;;;5049219;28;20057;-82
2023/06/22 12:03:07;;;;;;;5.70;5.15;;;27.70;99.90;;;;;;5060710;28;20040;-83
2023/06/22 12:05:33;;;;;;;6.03;5.53;;;27.60;99.90;;;;;;5027373;28;20029;-83
2023/06/22 12:07:59;;;;;;;6.78;6.07;;;27.60;99.90;;;;;;5050061;28;20106;-83
2023/06/22 12:10:28;;;;;;;7.05;6.15;;;27.40;99.90;;;;;;5059575;28;20128;-83
2023/06/22 12:12:54;;;;;;;6.68;6.00;;;27.20;99.90;;;;;;5053121;28;20044;-83
2023/06/22 12:15:19;;;;;;;6.32;5.82;;;27.30;99.90;;;;;;5049237;28;20033;-84
2023/06/22 12:17:45;;;;;;;5.70;5.15;;;27.30;99.90;;;;;;5054469;28;20580;-85
2023/06/22 12:20:11;;;;;;;6.00;5.40;;;27.40;99.90;;;;;;5022697;28;20045;-84
2023/06/22 12:22:37;;;;;;;5.47;4.97;;;27.20;99.90;;;;;;5016024;28;20127;-84
2023/06/22 12:25:03;;;;;;;6.87;4.87;;;27.20;99.90;;;;;;5053706;28;20041;-81
2023/06/22 12:27:30;;;;;;;7.75;5.20;;;27.20;99.90;;;;;;5050884;28;20300;-85
2023/06/22 12:29:56;;;;;;;6.10;5.32;;;27.00;99.90;;;;;;5052210;28;20072;-83
2023/06/22 12:32:22;;;;;;;5.60;5.10;;;26.90;99.90;;;;;;5021264;28;20484;-81
2023/06/22 12:34:47;;;;;;;5.68;4.90;;;26.90;99.90;;;;;;5059039;28;20147;-83